sensor_id;sensor_type;location;lat;lon;timestamp;P1;durP1;ratioP1;P2;durP2;ratioP2
38557;SDS011;24333;42.626;23.308;2022-12-18T07:01:01;13.50;;;4.95;;
38557;SDS011;24333;42.626;23.308;2022-12-18T12:26:43;20.45;;;7.05;;
38557;SDS011;24333;42.626;23.308;2022-12-18T13:09:56;20.73;;;7.05;;
38557;SDS011;24333;42.626;23.308;2022-12-18T13:23:34;22.08;;;7.47;;
38557;SDS011;24333;42.626;23.308;2022-12-18T13:34:24;24.67;;;9.20;;
38557;SDS011;24333;42.626;23.308;2022-12-18T13:36:52;33.35;;;10.60;;
38557;SDS011;24333;42.626;23.308;2022-12-18T14:05:24;33.53;;;11.52;;
38557;SDS011;24333;42.626;23.308;2022-12-18T14:07:52;31.55;;;10.35;;
38557;SDS011;24333;42.626;23.308;2022-12-18T14:12:57;48.13;;;16.20;;
38557;SDS011;24333;42.626;23.308;2022-12-18T14:28:29;47.10;;;16.08;;
38557;SDS011;24333;42.626;23.308;2022-12-18T14:31:00;36.63;;;11.77;;
38557;SDS011;24333;42.626;23.308;2022-12-18T14:33:28;30.85;;;10.27;;
38557;SDS011;24333;42.626;23.308;2022-12-18T14:36:00;31.40;;;11.20;;
38557;SDS011;24333;42.626;23.308;2022-12-18T14:41:08;33.35;;;11.48;;
38557;SDS011;24333;42.626;23.308;2022-12-18T14:43:38;21.10;;;8.65;;
38557;SDS011;24333;42.626;23.308;2022-12-18T14:48:59;23.60;;;8.98;;
38557;SDS011;24333;42.626;23.308;2022-12-18T14:51:27;31.02;;;10.05;;
38557;SDS011;24333;42.626;23.308;2022-12-18T14:54:02;27.08;;;8.80;;
38557;SDS011;24333;42.626;23.308;2022-12-18T14:56:36;28.60;;;11.15;;
38557;SDS011;24333;42.626;23.308;2022-12-18T15:01:47;31.10;;;10.02;;
38557;SDS011;24333;42.626;23.308;2022-12-18T15:04:28;25.58;;;10.07;;
38557;SDS011;24333;42.626;23.308;2022-12-18T15:12:43;25.75;;;8.82;;
38557;SDS011;24333;42.626;23.308;2022-12-18T15:18:05;39.53;;;14.02;;
38557;SDS011;24333;42.626;23.308;2022-12-18T15:23:34;43.60;;;14.55;;
38557;SDS011;24333;42.626;23.308;2022-12-18T15:26:04;43.75;;;14.68;;
38557;SDS011;24333;42.626;23.308;2022-12-18T15:28:51;42.20;;;13.82;;
38557;SDS011;24333;42.626;23.308;2022-12-18T15:31:30;36.87;;;12.73;;
38557;SDS011;24333;42.626;23.308;2022-12-18T15:36:49;35.33;;;10.80;;
38557;SDS011;24333;42.626;23.308;2022-12-18T15:39:16;43.10;;;14.98;;
38557;SDS011;24333;42.626;23.308;2022-12-18T15:41:44;28.35;;;10.40;;
38557;SDS011;24333;42.626;23.308;2022-12-18T15:44:29;32.45;;;10.65;;
38557;SDS011;24333;42.626;23.308;2022-12-18T15:46:55;31.55;;;10.30;;
38557;SDS011;24333;42.626;23.308;2022-12-18T15:49:21;34.50;;;11.30;;
38557;SDS011;24333;42.626;23.308;2022-12-18T15:51:54;23.90;;;10.13;;
38557;SDS011;24333;42.626;23.308;2022-12-18T15:54:27;36.50;;;12.68;;
38557;SDS011;24333;42.626;23.308;2022-12-18T15:57:13;31.95;;;11.13;;
38557;SDS011;24333;42.626;23.308;2022-12-18T15:59:48;30.90;;;11.52;;
38557;SDS011;24333;42.626;23.308;2022-12-18T16:02:16;33.75;;;11.18;;
38557;SDS011;24333;42.626;23.308;2022-12-18T16:04:43;29.02;;;11.15;;
38557;SDS011;24333;42.626;23.308;2022-12-18T16:07:12;32.70;;;9.82;;
38557;SDS011;24333;42.626;23.308;2022-12-18T16:09:40;23.85;;;9.57;;
38557;SDS011;24333;42.626;23.308;2022-12-18T16:12:06;32.95;;;11.18;;
38557;SDS011;24333;42.626;23.308;2022-12-18T16:14:39;26.33;;;9.30;;
38557;SDS011;24333;42.626;23.308;2022-12-18T16:17:06;26.35;;;9.23;;
38557;SDS011;24333;42.626;23.308;2022-12-18T16:19:35;27.20;;;10.57;;
38557;SDS011;24333;42.626;23.308;2022-12-18T16:22:04;30.40;;;9.25;;
38557;SDS011;24333;42.626;23.308;2022-12-18T16:24:31;25.33;;;9.23;;
38557;SDS011;24333;42.626;23.308;2022-12-18T16:27:01;24.25;;;9.35;;
38557;SDS011;24333;42.626;23.308;2022-12-18T16:29:27;21.77;;;7.72;;
38557;SDS011;24333;42.626;23.308;2022-12-18T16:32:08;23.25;;;7.72;;
38557;SDS011;24333;42.626;23.308;2022-12-18T16:34:38;18.77;;;7.35;;
38557;SDS011;24333;42.626;23.308;2022-12-18T16:37:17;22.98;;;7.85;;
38557;SDS011;24333;42.626;23.308;2022-12-18T16:39:52;18.00;;;6.72;;
38557;SDS011;24333;42.626;23.308;2022-12-18T16:42:20;26.00;;;8.60;;
38557;SDS011;24333;42.626;23.308;2022-12-18T16:44:46;24.48;;;8.23;;
38557;SDS011;24333;42.626;23.308;2022-12-18T16:47:17;26.20;;;8.77;;
38557;SDS011;24333;42.626;23.308;2022-12-18T16:49:46;21.90;;;7.78;;
38557;SDS011;24333;42.626;23.308;2022-12-18T16:52:15;23.70;;;8.13;;
38557;SDS011;24333;42.626;23.308;2022-12-18T16:54:55;20.48;;;7.55;;
38557;SDS011;24333;42.626;23.308;2022-12-18T16:57:28;19.73;;;6.40;;
38557;SDS011;24333;42.626;23.308;2022-12-18T17:00:09;29.80;;;7.60;;
38557;SDS011;24333;42.626;23.308;2022-12-18T17:02:38;24.70;;;7.32;;
38557;SDS011;24333;42.626;23.308;2022-12-18T17:05:09;20.65;;;6.80;;
38557;SDS011;24333;42.626;23.308;2022-12-18T17:07:35;16.70;;;5.80;;
38557;SDS011;24333;42.626;23.308;2022-12-18T17:10:13;15.55;;;6.03;;
38557;SDS011;24333;42.626;23.308;2022-12-18T17:12:41;16.33;;;5.53;;
38557;SDS011;24333;42.626;23.308;2022-12-18T17:15:11;17.90;;;5.50;;
38557;SDS011;24333;42.626;23.308;2022-12-18T17:17:37;15.38;;;5.93;;
38557;SDS011;24333;42.626;23.308;2022-12-18T17:20:05;14.02;;;5.00;;
38557;SDS011;24333;42.626;23.308;2022-12-18T17:22:32;15.32;;;4.75;;
38557;SDS011;24333;42.626;23.308;2022-12-18T17:33:24;16.25;;;4.88;;
38557;SDS011;24333;42.626;23.308;2022-12-18T17:35:50;12.77;;;3.90;;
38557;SDS011;24333;42.626;23.308;2022-12-18T17:38:16;13.05;;;5.07;;
38557;SDS011;24333;42.626;23.308;2022-12-18T17:40:44;16.88;;;5.65;;
38557;SDS011;24333;42.626;23.308;2022-12-18T17:43:10;14.05;;;5.45;;
38557;SDS011;24333;42.626;23.308;2022-12-18T17:45:38;20.00;;;5.88;;
38557;SDS011;24333;42.626;23.308;2022-12-18T17:48:04;18.20;;;5.93;;
38557;SDS011;24333;42.626;23.308;2022-12-18T17:50:34;21.17;;;6.80;;
38557;SDS011;24333;42.626;23.308;2022-12-18T17:53:00;16.33;;;5.32;;
38557;SDS011;24333;42.626;23.308;2022-12-18T17:55:27;18.83;;;6.03;;
38557;SDS011;24333;42.626;23.308;2022-12-18T17:57:54;17.52;;;5.53;;
38557;SDS011;24333;42.626;23.308;2022-12-18T18:00:22;19.70;;;5.35;;
38557;SDS011;24333;42.626;23.308;2022-12-18T18:02:48;19.13;;;6.22;;
38557;SDS011;24333;42.626;23.308;2022-12-18T18:05:14;18.98;;;6.78;;
38557;SDS011;24333;42.626;23.308;2022-12-18T18:07:39;21.90;;;7.03;;
38557;SDS011;24333;42.626;23.308;2022-12-18T18:10:05;16.85;;;6.15;;
38557;SDS011;24333;42.626;23.308;2022-12-18T18:12:31;17.23;;;6.15;;
38557;SDS011;24333;42.626;23.308;2022-12-18T18:15:16;17.40;;;5.95;;
38557;SDS011;24333;42.626;23.308;2022-12-18T18:17:42;15.73;;;5.28;;
38557;SDS011;24333;42.626;23.308;2022-12-18T18:20:08;17.88;;;6.18;;
38557;SDS011;24333;42.626;23.308;2022-12-18T18:22:34;14.85;;;5.32;;
38557;SDS011;24333;42.626;23.308;2022-12-18T18:32:59;15.15;;;5.15;;
38557;SDS011;24333;42.626;23.308;2022-12-18T18:35:24;20.25;;;5.50;;
38557;SDS011;24333;42.626;23.308;2022-12-18T18:43:00;17.90;;;6.28;;
38557;SDS011;24333;42.626;23.308;2022-12-18T18:45:26;16.70;;;5.78;;
38557;SDS011;24333;42.626;23.308;2022-12-18T18:47:51;18.73;;;6.35;;
38557;SDS011;24333;42.626;23.308;2022-12-18T18:50:17;23.25;;;6.97;;
38557;SDS011;24333;42.626;23.308;2022-12-18T18:52:43;19.05;;;7.00;;
38557;SDS011;24333;42.626;23.308;2022-12-18T18:55:09;19.50;;;7.15;;
38557;SDS011;24333;42.626;23.308;2022-12-18T18:57:34;34.83;;;9.43;;
38557;SDS011;24333;42.626;23.308;2022-12-18T19:00:00;24.52;;;8.57;;
38557;SDS011;24333;42.626;23.308;2022-12-18T19:02:26;25.15;;;7.45;;
